createdAt,value
2022-08-25T13:35:08.904Z,2.50
2022-08-25T13:47:13.818Z,2.83
2022-08-25T13:49:46.314Z,2.92
2022-08-25T13:52:29.245Z,2.38
2022-08-25T13:55:05.054Z,2.90
2022-08-25T14:00:18.229Z,2.78
2022-08-25T14:05:40.692Z,2.80
2022-08-25T14:11:15.076Z,2.38
2022-08-25T14:13:58.450Z,2.88
2022-08-25T14:16:25.734Z,3.08
2022-08-25T14:18:59.474Z,2.78
2022-08-25T14:21:32.460Z,2.72
2022-08-25T14:24:18.381Z,3.17
2022-08-25T14:26:58.294Z,2.72
2022-08-25T14:29:25.281Z,2.60
2022-08-25T14:31:52.627Z,2.75
2022-08-25T14:34:28.729Z,2.80
2022-08-25T14:37:09.653Z,2.70
2022-08-25T14:39:36.540Z,2.90
2022-08-25T14:42:13.391Z,2.70
2022-08-25T14:44:50.750Z,3.05
2022-08-25T14:47:23.787Z,2.58
2022-08-25T14:52:30.699Z,2.50
2022-08-25T14:55:06.143Z,2.90
2022-08-25T14:57:34.270Z,2.65
2022-08-25T15:00:04.740Z,3.00
2022-08-25T15:02:37.990Z,2.90
2022-08-25T15:08:10.351Z,2.40
2022-08-25T15:11:11.047Z,2.63
2022-08-25T15:13:41.742Z,2.35
2022-08-25T15:16:14.724Z,3.15
2022-08-25T15:19:00.915Z,2.75
2022-08-25T15:21:40.526Z,2.38
2022-08-25T15:24:10.411Z,2.70
2022-08-25T15:26:45.272Z,2.90
2022-08-25T15:29:19.137Z,2.58
2022-08-25T15:31:58.784Z,2.83
2022-08-25T15:37:17.498Z,2.60
2022-08-25T15:39:47.111Z,2.30
2022-08-25T15:42:26.254Z,2.90
2022-08-25T15:44:53.907Z,3.08
2022-08-25T15:47:30.385Z,2.72
2022-08-25T15:50:08.866Z,2.85
2022-08-25T15:52:47.427Z,2.63
2022-08-25T15:55:19.972Z,2.87
2022-08-25T15:57:54.699Z,2.40
2022-08-25T16:00:22.003Z,3.10
2022-08-25T16:02:54.422Z,2.50
2022-08-25T16:05:25.629Z,2.45
2022-08-25T16:08:01.559Z,2.60
2022-08-25T16:10:46.881Z,2.40
2022-08-25T16:13:22.489Z,2.80
2022-08-25T16:16:04.164Z,2.65
2022-08-25T16:18:31.041Z,3.30
2022-08-25T16:21:25.752Z,3.22
2022-08-25T16:24:10.700Z,3.08
2022-08-25T16:26:48.551Z,2.95
2022-08-25T16:29:23.473Z,3.03
2022-08-25T16:31:58.903Z,3.05
2022-08-25T16:34:31.769Z,3.15
2022-08-25T16:37:01.456Z,2.97
2022-08-25T16:39:28.332Z,3.47
2022-08-25T16:42:02.723Z,3.60
2022-08-25T16:44:39.959Z,3.05
2022-08-25T16:47:14.131Z,3.38
2022-08-25T16:49:44.158Z,3.45
2022-08-25T16:52:40.676Z,3.53
2022-08-25T16:55:13.789Z,3.10
2022-08-25T16:58:13.488Z,3.30
2022-08-25T17:00:40.933Z,2.83
2022-08-25T17:03:17.567Z,3.10
2022-08-25T17:05:51.566Z,2.90
2022-08-25T17:08:30.489Z,3.45
2022-08-25T17:11:21.479Z,3.40
2022-08-25T17:13:52.037Z,2.95
2022-08-25T17:18:48.009Z,3.40
2022-08-25T17:21:24.327Z,3.75
2022-08-25T17:23:53.056Z,3.17
2022-08-25T17:26:27.930Z,3.72
2022-08-25T17:28:56.857Z,3.15
2022-08-25T17:31:27.094Z,3.53
2022-08-25T17:33:58.306Z,3.50
2022-08-25T17:36:27.624Z,3.38
2022-08-25T17:38:59.688Z,2.88
2022-08-25T17:41:26.562Z,3.58
2022-08-25T17:43:53.370Z,3.03
2022-08-25T17:46:20.918Z,3.30
2022-08-25T17:48:50.359Z,3.30
2022-08-25T17:51:34.029Z,3.60
2022-08-25T17:56:31.726Z,3.65
2022-08-25T17:58:58.540Z,3.80
2022-08-25T18:01:57.796Z,3.72
2022-08-25T18:04:29.560Z,3.45
2022-08-25T18:09:34.535Z,3.40
2022-08-25T18:12:06.499Z,3.20
2022-08-25T18:14:39.526Z,3.55
2022-08-25T18:17:11.667Z,3.33
2022-08-25T18:19:46.733Z,3.40
2022-08-25T18:22:13.680Z,3.22
2022-08-25T18:24:43.078Z,3.20
2022-08-25T18:27:11.975Z,3.35
2022-08-25T18:29:41.179Z,3.60
2022-08-25T18:32:09.629Z,3.53
2022-08-25T18:34:41.221Z,3.30
2022-08-25T18:37:15.006Z,3.60
2022-08-25T18:40:02.061Z,3.03
2022-08-25T18:42:29.777Z,3.22
2022-08-25T18:45:12.489Z,3.40
2022-08-25T18:47:44.466Z,3.38
2022-08-25T18:50:13.748Z,3.50
2022-08-25T18:52:43.865Z,3.65
2022-08-25T18:55:13.258Z,3.50
2022-08-25T19:00:20.429Z,3.65
2022-08-25T19:02:49.198Z,3.58
2022-08-25T19:05:17.489Z,3.78
2022-08-25T19:07:45.694Z,3.70
2022-08-25T19:10:20.114Z,3.70
2022-08-25T19:12:57.063Z,4.07
2022-08-25T19:15:27.476Z,3.65
2022-08-25T19:17:56.762Z,3.58
